sensor_id;sensor_type;location;lat;lon;timestamp;P1;durP1;ratioP1;P2;durP2;ratioP2
67930;SDS011;63902;52.000;5.954;2023-02-28T00:00:28;4.75;;;2.60;;
67930;SDS011;63902;52.000;5.954;2023-02-28T00:01:28;10.77;;;3.17;;
67930;SDS011;63902;52.000;5.954;2023-02-28T00:02:29;4.72;;;2.67;;
67930;SDS011;63902;52.000;5.954;2023-02-28T00:03:29;8.90;;;2.38;;
67930;SDS011;63902;52.000;5.954;2023-02-28T00:04:30;5.18;;;2.70;;
67930;SDS011;63902;52.000;5.954;2023-02-28T00:05:30;5.78;;;3.00;;
67930;SDS011;63902;52.000;5.954;2023-02-28T00:06:32;8.02;;;3.53;;
67930;SDS011;63902;52.000;5.954;2023-02-28T00:07:33;4.32;;;2.95;;
67930;SDS011;63902;52.000;5.954;2023-02-28T00:08:34;4.57;;;2.85;;
67930;SDS011;63902;52.000;5.954;2023-02-28T00:09:34;5.22;;;2.80;;
67930;SDS011;63902;52.000;5.954;2023-02-28T00:10:35;5.25;;;2.53;;
67930;SDS011;63902;52.000;5.954;2023-02-28T00:11:35;5.25;;;2.92;;
67930;SDS011;63902;52.000;5.954;2023-02-28T00:12:36;5.85;;;3.17;;
67930;SDS011;63902;52.000;5.954;2023-02-28T00:13:39;5.38;;;2.80;;
67930;SDS011;63902;52.000;5.954;2023-02-28T00:14:41;5.80;;;2.95;;
67930;SDS011;63902;52.000;5.954;2023-02-28T00:15:41;5.32;;;3.50;;
67930;SDS011;63902;52.000;5.954;2023-02-28T00:16:41;6.97;;;3.17;;
67930;SDS011;63902;52.000;5.954;2023-02-28T00:17:42;12.07;;;3.80;;
67930;SDS011;63902;52.000;5.954;2023-02-28T00:18:43;6.05;;;2.80;;
67930;SDS011;63902;52.000;5.954;2023-02-28T00:19:44;6.63;;;2.72;;
67930;SDS011;63902;52.000;5.954;2023-02-28T00:20:44;6.60;;;3.42;;
67930;SDS011;63902;52.000;5.954;2023-02-28T00:21:46;5.05;;;2.95;;
67930;SDS011;63902;52.000;5.954;2023-02-28T00:22:48;5.00;;;2.50;;
67930;SDS011;63902;52.000;5.954;2023-02-28T00:23:50;5.13;;;2.67;;
67930;SDS011;63902;52.000;5.954;2023-02-28T00:24:50;6.00;;;2.97;;
67930;SDS011;63902;52.000;5.954;2023-02-28T00:25:51;8.10;;;2.47;;
67930;SDS011;63902;52.000;5.954;2023-02-28T00:26:51;7.80;;;2.67;;
67930;SDS011;63902;52.000;5.954;2023-02-28T00:27:52;4.20;;;2.90;;
67930;SDS011;63902;52.000;5.954;2023-02-28T00:28:52;5.32;;;2.65;;
67930;SDS011;63902;52.000;5.954;2023-02-28T00:29:53;4.75;;;2.88;;
67930;SDS011;63902;52.000;5.954;2023-02-28T00:30:53;6.82;;;2.97;;
67930;SDS011;63902;52.000;5.954;2023-02-28T00:31:54;5.82;;;3.10;;
67930;SDS011;63902;52.000;5.954;2023-02-28T00:32:54;4.80;;;3.25;;
67930;SDS011;63902;52.000;5.954;2023-02-28T00:33:55;6.70;;;3.33;;
67930;SDS011;63902;52.000;5.954;2023-02-28T00:34:55;4.57;;;3.00;;
67930;SDS011;63902;52.000;5.954;2023-02-28T00:36:02;7.00;;;3.13;;
67930;SDS011;63902;52.000;5.954;2023-02-28T00:37:06;3.72;;;2.55;;
67930;SDS011;63902;52.000;5.954;2023-02-28T00:38:09;7.85;;;3.00;;
67930;SDS011;63902;52.000;5.954;2023-02-28T00:39:09;6.47;;;2.80;;
67930;SDS011;63902;52.000;5.954;2023-02-28T00:40:10;5.45;;;2.92;;
67930;SDS011;63902;52.000;5.954;2023-02-28T00:41:11;5.30;;;2.97;;
67930;SDS011;63902;52.000;5.954;2023-02-28T00:42:11;5.70;;;3.00;;
67930;SDS011;63902;52.000;5.954;2023-02-28T00:43:12;5.20;;;2.80;;
67930;SDS011;63902;52.000;5.954;2023-02-28T00:44:12;3.65;;;2.80;;
67930;SDS011;63902;52.000;5.954;2023-02-28T00:45:13;5.38;;;2.80;;
67930;SDS011;63902;52.000;5.954;2023-02-28T00:46:13;7.68;;;3.38;;
67930;SDS011;63902;52.000;5.954;2023-02-28T00:47:14;6.78;;;3.33;;
67930;SDS011;63902;52.000;5.954;2023-02-28T00:48:14;4.75;;;2.47;;
67930;SDS011;63902;52.000;5.954;2023-02-28T00:49:15;7.72;;;2.97;;
67930;SDS011;63902;52.000;5.954;2023-02-28T00:50:15;4.63;;;2.50;;
67930;SDS011;63902;52.000;5.954;2023-02-28T00:51:16;5.18;;;2.88;;
67930;SDS011;63902;52.000;5.954;2023-02-28T00:52:18;6.95;;;2.78;;
67930;SDS011;63902;52.000;5.954;2023-02-28T00:53:18;7.55;;;2.65;;
67930;SDS011;63902;52.000;5.954;2023-02-28T00:54:19;4.63;;;2.80;;
67930;SDS011;63902;52.000;5.954;2023-02-28T00:55:20;6.80;;;3.10;;
67930;SDS011;63902;52.000;5.954;2023-02-28T00:56:20;4.95;;;2.67;;
67930;SDS011;63902;52.000;5.954;2023-02-28T00:57:21;3.72;;;3.00;;
67930;SDS011;63902;52.000;5.954;2023-02-28T00:58:21;9.55;;;2.95;;
67930;SDS011;63902;52.000;5.954;2023-02-28T00:59:22;6.30;;;2.83;;
67930;SDS011;63902;52.000;5.954;2023-02-28T01:00:22;6.07;;;2.95;;
67930;SDS011;63902;52.000;5.954;2023-02-28T01:01:23;4.38;;;2.55;;
67930;SDS011;63902;52.000;5.954;2023-02-28T01:02:23;4.40;;;2.90;;
67930;SDS011;63902;52.000;5.954;2023-02-28T01:03:23;7.07;;;2.90;;
67930;SDS011;63902;52.000;5.954;2023-02-28T01:04:24;6.07;;;2.80;;
67930;SDS011;63902;52.000;5.954;2023-02-28T01:05:24;6.07;;;3.30;;
67930;SDS011;63902;52.000;5.954;2023-02-28T01:06:25;5.05;;;2.90;;
67930;SDS011;63902;52.000;5.954;2023-02-28T01:07:27;6.30;;;3.05;;
67930;SDS011;63902;52.000;5.954;2023-02-28T01:08:27;5.70;;;2.95;;
67930;SDS011;63902;52.000;5.954;2023-02-28T01:09:28;7.43;;;3.22;;
67930;SDS011;63902;52.000;5.954;2023-02-28T01:10:29;7.43;;;3.00;;
67930;SDS011;63902;52.000;5.954;2023-02-28T01:11:30;5.10;;;2.85;;
67930;SDS011;63902;52.000;5.954;2023-02-28T01:12:30;6.30;;;3.47;;
67930;SDS011;63902;52.000;5.954;2023-02-28T01:13:31;11.38;;;3.17;;
67930;SDS011;63902;52.000;5.954;2023-02-28T01:14:32;6.85;;;3.00;;
67930;SDS011;63902;52.000;5.954;2023-02-28T01:15:32;8.32;;;3.00;;
67930;SDS011;63902;52.000;5.954;2023-02-28T01:16:33;5.85;;;2.67;;
67930;SDS011;63902;52.000;5.954;2023-02-28T01:17:33;6.35;;;3.42;;
67930;SDS011;63902;52.000;5.954;2023-02-28T01:18:34;5.25;;;3.17;;
67930;SDS011;63902;52.000;5.954;2023-02-28T01:19:35;4.80;;;2.60;;
67930;SDS011;63902;52.000;5.954;2023-02-28T01:20:36;5.10;;;3.33;;
67930;SDS011;63902;52.000;5.954;2023-02-28T01:21:36;5.95;;;3.00;;
67930;SDS011;63902;52.000;5.954;2023-02-28T01:22:38;5.88;;;3.00;;
67930;SDS011;63902;52.000;5.954;2023-02-28T01:23:39;6.75;;;3.40;;
67930;SDS011;63902;52.000;5.954;2023-02-28T01:24:40;4.18;;;3.00;;
67930;SDS011;63902;52.000;5.954;2023-02-28T01:25:40;4.65;;;2.85;;
67930;SDS011;63902;52.000;5.954;2023-02-28T01:26:40;4.38;;;3.13;;
67930;SDS011;63902;52.000;5.954;2023-02-28T01:27:41;4.72;;;2.90;;
67930;SDS011;63902;52.000;5.954;2023-02-28T01:28:41;5.65;;;3.28;;
67930;SDS011;63902;52.000;5.954;2023-02-28T01:29:42;4.63;;;2.88;;
67930;SDS011;63902;52.000;5.954;2023-02-28T01:30:46;4.50;;;3.08;;
67930;SDS011;63902;52.000;5.954;2023-02-28T01:31:48;9.32;;;3.30;;
67930;SDS011;63902;52.000;5.954;2023-02-28T01:32:48;4.80;;;3.22;;
67930;SDS011;63902;52.000;5.954;2023-02-28T01:33:48;6.75;;;3.42;;
67930;SDS011;63902;52.000;5.954;2023-02-28T01:34:49;17.00;;;3.92;;
67930;SDS011;63902;52.000;5.954;2023-02-28T01:35:50;6.40;;;3.22;;
67930;SDS011;63902;52.000;5.954;2023-02-28T01:36:57;6.93;;;3.33;;
67930;SDS011;63902;52.000;5.954;2023-02-28T01:37:59;7.18;;;3.15;;
67930;SDS011;63902;52.000;5.954;2023-02-28T01:39:00;11.43;;;2.85;;
67930;SDS011;63902;52.000;5.954;2023-02-28T01:40:00;7.88;;;3.28;;
67930;SDS011;63902;52.000;5.954;2023-02-28T01:41:01;4.70;;;3.03;;
67930;SDS011;63902;52.000;5.954;2023-02-28T01:42:01;6.63;;;3.33;;
67930;SDS011;63902;52.000;5.954;2023-02-28T01:43:02;5.35;;;2.80;;
67930;SDS011;63902;52.000;5.954;2023-02-28T01:44:03;8.75;;;3.42;;
67930;SDS011;63902;52.000;5.954;2023-02-28T01:45:14;6.15;;;2.85;;
67930;SDS011;63902;52.000;5.954;2023-02-28T01:46:21;5.05;;;3.13;;
67930;SDS011;63902;52.000;5.954;2023-02-28T01:47:21;6.30;;;3.75;;
67930;SDS011;63902;52.000;5.954;2023-02-28T01:48:25;7.15;;;3.42;;
67930;SDS011;63902;52.000;5.954;2023-02-28T01:49:29;5.30;;;3.15;;
67930;SDS011;63902;52.000;5.954;2023-02-28T01:50:30;7.25;;;3.78;;
67930;SDS011;63902;52.000;5.954;2023-02-28T01:51:36;5.60;;;3.30;;
67930;SDS011;63902;52.000;5.954;2023-02-28T01:52:39;7.57;;;3.47;;
67930;SDS011;63902;52.000;5.954;2023-02-28T01:53:43;8.32;;;3.42;;
67930;SDS011;63902;52.000;5.954;2023-02-28T01:54:45;5.40;;;3.22;;
67930;SDS011;63902;52.000;5.954;2023-02-28T01:55:50;6.75;;;3.35;;
67930;SDS011;63902;52.000;5.954;2023-02-28T01:56:54;10.02;;;3.70;;
67930;SDS011;63902;52.000;5.954;2023-02-28T01:58:00;4.60;;;3.25;;
67930;SDS011;63902;52.000;5.954;2023-02-28T01:59:04;6.30;;;3.55;;
67930;SDS011;63902;52.000;5.954;2023-02-28T02:00:05;6.25;;;3.88;;
67930;SDS011;63902;52.000;5.954;2023-02-28T02:01:08;5.18;;;3.28;;
67930;SDS011;63902;52.000;5.954;2023-02-28T02:02:08;10.32;;;3.88;;
67930;SDS011;63902;52.000;5.954;2023-02-28T02:03:10;5.97;;;3.28;;
67930;SDS011;63902;52.000;5.954;2023-02-28T02:04:14;9.18;;;3.42;;
67930;SDS011;63902;52.000;5.954;2023-02-28T02:05:15;4.18;;;2.80;;
67930;SDS011;63902;52.000;5.954;2023-02-28T02:06:18;7.13;;;3.33;;
67930;SDS011;63902;52.000;5.954;2023-02-28T02:07:18;6.65;;;3.67;;
67930;SDS011;63902;52.000;5.954;2023-02-28T02:08:20;6.50;;;3.60;;
67930;SDS011;63902;52.000;5.954;2023-02-28T02:09:24;10.05;;;4.13;;
67930;SDS011;63902;52.000;5.954;2023-02-28T02:10:25;10.65;;;3.70;;
67930;SDS011;63902;52.000;5.954;2023-02-28T02:11:30;10.43;;;3.58;;
67930;SDS011;63902;52.000;5.954;2023-02-28T02:12:34;4.82;;;3.15;;
67930;SDS011;63902;52.000;5.954;2023-02-28T02:15:20;6.57;;;3.10;;
67930;SDS011;63902;52.000;5.954;2023-02-28T02:16:33;7.95;;;3.42;;
67930;SDS011;63902;52.000;5.954;2023-02-28T02:18:43;8.07;;;3.38;;
67930;SDS011;63902;52.000;5.954;2023-02-28T02:23:07;7.10;;;3.42;;
67930;SDS011;63902;52.000;5.954;2023-02-28T02:24:31;12.43;;;2.95;;
67930;SDS011;63902;52.000;5.954;2023-02-28T02:25:47;4.78;;;3.25;;
67930;SDS011;63902;52.000;5.954;2023-02-28T02:27:04;4.30;;;2.78;;
67930;SDS011;63902;52.000;5.954;2023-02-28T02:28:40;9.07;;;3.20;;
67930;SDS011;63902;52.000;5.954;2023-02-28T02:33:18;12.30;;;3.13;;
67930;SDS011;63902;52.000;5.954;2023-02-28T02:34:41;6.40;;;3.22;;
67930;SDS011;63902;52.000;5.954;2023-02-28T02:35:47;5.80;;;3.28;;
67930;SDS011;63902;52.000;5.954;2023-02-28T02:36:55;5.40;;;2.95;;
67930;SDS011;63902;52.000;5.954;2023-02-28T02:38:05;8.02;;;3.00;;
67930;SDS011;63902;52.000;5.954;2023-02-28T02:39:11;7.28;;;3.03;;
67930;SDS011;63902;52.000;5.954;2023-02-28T02:40:16;7.65;;;2.90;;
67930;SDS011;63902;52.000;5.954;2023-02-28T02:41:23;6.75;;;3.03;;
67930;SDS011;63902;52.000;5.954;2023-02-28T02:42:28;7.32;;;3.33;;
67930;SDS011;63902;52.000;5.954;2023-02-28T02:43:36;4.65;;;2.95;;
67930;SDS011;63902;52.000;5.954;2023-02-28T02:44:42;5.90;;;3.53;;
67930;SDS011;63902;52.000;5.954;2023-02-28T02:45:49;7.90;;;3.15;;
67930;SDS011;63902;52.000;5.954;2023-02-28T02:46:57;11.32;;;3.45;;
67930;SDS011;63902;52.000;5.954;2023-02-28T02:48:03;9.98;;;3.63;;
67930;SDS011;63902;52.000;5.954;2023-02-28T02:49:09;5.03;;;2.95;;
67930;SDS011;63902;52.000;5.954;2023-02-28T02:50:17;4.35;;;2.70;;
67930;SDS011;63902;52.000;5.954;2023-02-28T02:51:22;5.22;;;3.22;;
67930;SDS011;63902;52.000;5.954;2023-02-28T02:52:27;5.47;;;3.15;;
67930;SDS011;63902;52.000;5.954;2023-02-28T02:53:35;4.78;;;3.20;;
67930;SDS011;63902;52.000;5.954;2023-02-28T02:54:41;4.28;;;3.13;;
67930;SDS011;63902;52.000;5.954;2023-02-28T02:55:44;4.15;;;3.25;;
67930;SDS011;63902;52.000;5.954;2023-02-28T02:56:48;7.45;;;3.58;;
67930;SDS011;63902;52.000;5.954;2023-02-28T02:57:51;9.07;;;4.13;;
67930;SDS011;63902;52.000;5.954;2023-02-28T02:58:54;4.72;;;3.40;;
67930;SDS011;63902;52.000;5.954;2023-02-28T02:59:59;6.43;;;3.22;;
67930;SDS011;63902;52.000;5.954;2023-02-28T03:01:03;5.57;;;3.25;;
67930;SDS011;63902;52.000;5.954;2023-02-28T03:02:06;6.60;;;3.38;;
67930;SDS011;63902;52.000;5.954;2023-02-28T03:03:09;4.55;;;3.30;;
67930;SDS011;63902;52.000;5.954;2023-02-28T03:04:13;6.82;;;3.58;;
67930;SDS011;63902;52.000;5.954;2023-02-28T03:05:21;7.80;;;3.50;;
67930;SDS011;63902;52.000;5.954;2023-02-28T03:06:25;7.63;;;3.72;;
67930;SDS011;63902;52.000;5.954;2023-02-28T03:07:26;5.28;;;3.30;;
67930;SDS011;63902;52.000;5.954;2023-02-28T03:08:27;5.30;;;3.30;;
67930;SDS011;63902;52.000;5.954;2023-02-28T03:09:29;6.15;;;4.05;;
67930;SDS011;63902;52.000;5.954;2023-02-28T03:10:35;8.15;;;3.63;;
67930;SDS011;63902;52.000;5.954;2023-02-28T03:11:37;6.10;;;2.88;;
67930;SDS011;63902;52.000;5.954;2023-02-28T03:12:40;4.70;;;3.10;;
67930;SDS011;63902;52.000;5.954;2023-02-28T03:14:05;6.13;;;3.13;;
67930;SDS011;63902;52.000;5.954;2023-02-28T03:15:15;9.10;;;3.03;;
67930;SDS011;63902;52.000;5.954;2023-02-28T03:16:28;5.38;;;2.97;;
67930;SDS011;63902;52.000;5.954;2023-02-28T03:17:37;8.10;;;3.67;;
67930;SDS011;63902;52.000;5.954;2023-02-28T03:18:53;5.28;;;2.80;;
67930;SDS011;63902;52.000;5.954;2023-02-28T03:20:04;6.75;;;3.15;;
67930;SDS011;63902;52.000;5.954;2023-02-28T03:21:14;5.25;;;2.70;;
67930;SDS011;63902;52.000;5.954;2023-02-28T03:22:32;4.57;;;3.17;;
67930;SDS011;63902;52.000;5.954;2023-02-28T03:23:42;5.53;;;3.28;;
67930;SDS011;63902;52.000;5.954;2023-02-28T03:24:49;9.00;;;3.50;;
67930;SDS011;63902;52.000;5.954;2023-02-28T03:25:56;7.47;;;3.33;;
67930;SDS011;63902;52.000;5.954;2023-02-28T03:27:03;5.32;;;3.72;;
67930;SDS011;63902;52.000;5.954;2023-02-28T03:28:09;5.47;;;3.47;;
67930;SDS011;63902;52.000;5.954;2023-02-28T03:29:16;9.25;;;3.40;;
67930;SDS011;63902;52.000;5.954;2023-02-28T03:30:24;7.30;;;3.38;;
67930;SDS011;63902;52.000;5.954;2023-02-28T03:31:29;4.25;;;3.25;;
67930;SDS011;63902;52.000;5.954;2023-02-28T03:32:35;7.88;;;3.70;;
67930;SDS011;63902;52.000;5.954;2023-02-28T03:33:39;9.55;;;3.55;;
67930;SDS011;63902;52.000;5.954;2023-02-28T03:34:46;4.70;;;2.78;;
67930;SDS011;63902;52.000;5.954;2023-02-28T03:35:55;4.72;;;3.10;;
67930;SDS011;63902;52.000;5.954;2023-02-28T03:37:02;5.30;;;3.38;;
67930;SDS011;63902;52.000;5.954;2023-02-28T03:38:09;6.85;;;3.50;;
67930;SDS011;63902;52.000;5.954;2023-02-28T03:39:15;5.82;;;3.25;;
67930;SDS011;63902;52.000;5.954;2023-02-28T03:40:20;5.68;;;3.50;;
67930;SDS011;63902;52.000;5.954;2023-02-28T03:41:26;6.10;;;2.90;;
67930;SDS011;63902;52.000;5.954;2023-02-28T03:42:31;4.97;;;3.08;;
67930;SDS011;63902;52.000;5.954;2023-02-28T03:43:36;8.65;;;3.85;;
67930;SDS011;63902;52.000;5.954;2023-02-28T03:44:41;6.43;;;3.22;;
67930;SDS011;63902;52.000;5.954;2023-02-28T03:45:45;4.45;;;3.00;;
67930;SDS011;63902;52.000;5.954;2023-02-28T03:46:49;7.05;;;2.90;;
67930;SDS011;63902;52.000;5.954;2023-02-28T03:47:57;4.53;;;3.22;;
67930;SDS011;63902;52.000;5.954;2023-02-28T03:49:03;6.28;;;3.17;;
67930;SDS011;63902;52.000;5.954;2023-02-28T03:50:11;4.93;;;2.90;;
67930;SDS011;63902;52.000;5.954;2023-02-28T03:51:18;6.82;;;2.85;;
67930;SDS011;63902;52.000;5.954;2023-02-28T03:52:25;5.72;;;3.47;;
67930;SDS011;63902;52.000;5.954;2023-02-28T03:53:30;4.55;;;2.75;;
67930;SDS011;63902;52.000;5.954;2023-02-28T03:54:34;5.07;;;3.08;;
67930;SDS011;63902;52.000;5.954;2023-02-28T03:55:39;5.75;;;2.83;;
67930;SDS011;63902;52.000;5.954;2023-02-28T03:56:43;4.63;;;2.50;;
67930;SDS011;63902;52.000;5.954;2023-02-28T03:57:52;6.65;;;2.40;;
67930;SDS011;63902;52.000;5.954;2023-02-28T03:59:02;6.65;;;3.10;;
67930;SDS011;63902;52.000;5.954;2023-02-28T04:00:08;5.55;;;2.80;;
67930;SDS011;63902;52.000;5.954;2023-02-28T04:01:15;5.55;;;2.97;;
67930;SDS011;63902;52.000;5.954;2023-02-28T04:02:20;4.82;;;3.05;;
67930;SDS011;63902;52.000;5.954;2023-02-28T04:03:20;5.82;;;2.80;;
67930;SDS011;63902;52.000;5.954;2023-02-28T04:04:21;2.85;;;2.28;;
67930;SDS011;63902;52.000;5.954;2023-02-28T04:05:21;5.30;;;2.60;;
67930;SDS011;63902;52.000;5.954;2023-02-28T04:06:23;4.75;;;2.63;;
67930;SDS011;63902;52.000;5.954;2023-02-28T04:07:28;4.28;;;2.83;;
67930;SDS011;63902;52.000;5.954;2023-02-28T04:08:29;8.20;;;3.58;;
67930;SDS011;63902;52.000;5.954;2023-02-28T04:09:29;8.32;;;2.83;;
67930;SDS011;63902;52.000;5.954;2023-02-28T04:10:30;3.55;;;2.47;;
67930;SDS011;63902;52.000;5.954;2023-02-28T04:11:32;3.35;;;2.53;;
67930;SDS011;63902;52.000;5.954;2023-02-28T04:12:34;5.22;;;2.72;;
67930;SDS011;63902;52.000;5.954;2023-02-28T04:13:34;4.72;;;2.60;;
67930;SDS011;63902;52.000;5.954;2023-02-28T04:14:35;4.97;;;2.55;;
67930;SDS011;63902;52.000;5.954;2023-02-28T04:15:35;6.13;;;2.80;;
67930;SDS011;63902;52.000;5.954;2023-02-28T04:16:37;3.65;;;2.53;;
67930;SDS011;63902;52.000;5.954;2023-02-28T04:17:39;5.18;;;2.30;;
67930;SDS011;63902;52.000;5.954;2023-02-28T04:18:39;5.88;;;2.70;;
67930;SDS011;63902;52.000;5.954;2023-02-28T04:19:40;6.78;;;2.80;;
67930;SDS011;63902;52.000;5.954;2023-02-28T04:20:40;5.50;;;2.65;;
67930;SDS011;63902;52.000;5.954;2023-02-28T04:21:42;4.47;;;2.40;;
67930;SDS011;63902;52.000;5.954;2023-02-28T04:22:45;6.30;;;2.22;;
67930;SDS011;63902;52.000;5.954;2023-02-28T04:23:45;5.75;;;3.03;;
67930;SDS011;63902;52.000;5.954;2023-02-28T04:24:46;3.35;;;2.33;;
67930;SDS011;63902;52.000;5.954;2023-02-28T04:25:46;4.35;;;2.35;;
67930;SDS011;63902;52.000;5.954;2023-02-28T04:26:47;4.97;;;2.53;;
67930;SDS011;63902;52.000;5.954;2023-02-28T04:27:49;6.28;;;2.78;;
67930;SDS011;63902;52.000;5.954;2023-02-28T04:28:49;5.80;;;2.80;;
67930;SDS011;63902;52.000;5.954;2023-02-28T04:29:49;6.22;;;2.40;;
67930;SDS011;63902;52.000;5.954;2023-02-28T04:30:53;4.22;;;2.42;;
67930;SDS011;63902;52.000;5.954;2023-02-28T04:31:55;3.83;;;2.30;;
67930;SDS011;63902;52.000;5.954;2023-02-28T04:32:56;5.72;;;2.80;;
67930;SDS011;63902;52.000;5.954;2023-02-28T04:33:57;5.25;;;2.80;;
67930;SDS011;63902;52.000;5.954;2023-02-28T04:34:57;9.30;;;2.80;;
67930;SDS011;63902;52.000;5.954;2023-02-28T04:35:58;5.35;;;2.42;;
67930;SDS011;63902;52.000;5.954;2023-02-28T04:37:00;4.00;;;2.38;;
67930;SDS011;63902;52.000;5.954;2023-02-28T04:38:02;3.70;;;2.45;;
67930;SDS011;63902;52.000;5.954;2023-02-28T04:39:03;8.20;;;2.65;;
67930;SDS011;63902;52.000;5.954;2023-02-28T04:40:04;5.15;;;2.70;;
67930;SDS011;63902;52.000;5.954;2023-02-28T04:41:05;8.20;;;2.75;;
67930;SDS011;63902;52.000;5.954;2023-02-28T04:42:06;3.58;;;2.33;;
67930;SDS011;63902;52.000;5.954;2023-02-28T04:43:06;8.52;;;2.60;;
67930;SDS011;63902;52.000;5.954;2023-02-28T04:44:07;5.22;;;2.50;;
67930;SDS011;63902;52.000;5.954;2023-02-28T04:45:08;3.10;;;2.35;;
67930;SDS011;63902;52.000;5.954;2023-02-28T04:46:09;3.10;;;1.88;;
67930;SDS011;63902;52.000;5.954;2023-02-28T04:47:10;4.43;;;2.35;;
67930;SDS011;63902;52.000;5.954;2023-02-28T04:48:10;3.95;;;2.25;;
67930;SDS011;63902;52.000;5.954;2023-02-28T04:49:11;3.97;;;1.85;;
67930;SDS011;63902;52.000;5.954;2023-02-28T04:50:11;4.32;;;2.40;;
67930;SDS011;63902;52.000;5.954;2023-02-28T04:51:13;4.25;;;2.53;;
67930;SDS011;63902;52.000;5.954;2023-02-28T04:52:14;5.85;;;2.17;;
67930;SDS011;63902;52.000;5.954;2023-02-28T04:53:16;4.65;;;2.50;;
67930;SDS011;63902;52.000;5.954;2023-02-28T04:54:17;4.65;;;2.78;;
67930;SDS011;63902;52.000;5.954;2023-02-28T04:55:17;3.63;;;2.25;;
67930;SDS011;63902;52.000;5.954;2023-02-28T04:56:18;4.93;;;2.10;;
67930;SDS011;63902;52.000;5.954;2023-02-28T04:57:18;3.78;;;2.05;;
67930;SDS011;63902;52.000;5.954;2023-02-28T04:58:19;3.60;;;2.30;;
67930;SDS011;63902;52.000;5.954;2023-02-28T04:59:19;3.65;;;2.30;;
67930;SDS011;63902;52.000;5.954;2023-02-28T05:00:20;4.25;;;2.60;;
67930;SDS011;63902;52.000;5.954;2023-02-28T05:01:21;4.28;;;2.38;;
67930;SDS011;63902;52.000;5.954;2023-02-28T05:02:23;4.75;;;2.33;;
67930;SDS011;63902;52.000;5.954;2023-02-28T05:03:23;3.53;;;2.17;;
67930;SDS011;63902;52.000;5.954;2023-02-28T05:04:24;4.35;;;2.42;;
67930;SDS011;63902;52.000;5.954;2023-02-28T05:05:24;4.93;;;2.40;;
67930;SDS011;63902;52.000;5.954;2023-02-28T05:06:25;2.88;;;2.03;;
67930;SDS011;63902;52.000;5.954;2023-02-28T05:07:27;2.97;;;1.90;;
67930;SDS011;63902;52.000;5.954;2023-02-28T05:08:29;4.72;;;2.42;;
67930;SDS011;63902;52.000;5.954;2023-02-28T05:09:29;5.38;;;1.90;;
67930;SDS011;63902;52.000;5.954;2023-02-28T05:10:30;4.63;;;2.33;;
67930;SDS011;63902;52.000;5.954;2023-02-28T05:11:31;4.45;;;2.00;;
67930;SDS011;63902;52.000;5.954;2023-02-28T05:12:33;4.47;;;2.50;;
67930;SDS011;63902;52.000;5.954;2023-02-28T05:13:33;3.60;;;2.10;;
67930;SDS011;63902;52.000;5.954;2023-02-28T05:14:34;3.20;;;2.28;;
67930;SDS011;63902;52.000;5.954;2023-02-28T05:15:34;4.82;;;2.33;;
67930;SDS011;63902;52.000;5.954;2023-02-28T05:16:35;3.30;;;2.13;;
67930;SDS011;63902;52.000;5.954;2023-02-28T05:17:35;2.70;;;1.98;;
67930;SDS011;63902;52.000;5.954;2023-02-28T05:18:36;3.05;;;2.00;;
67930;SDS011;63902;52.000;5.954;2023-02-28T05:19:36;4.53;;;2.20;;
67930;SDS011;63902;52.000;5.954;2023-02-28T05:20:37;4.20;;;2.10;;
67930;SDS011;63902;52.000;5.954;2023-02-28T05:21:38;3.25;;;2.10;;
67930;SDS011;63902;52.000;5.954;2023-02-28T05:22:40;3.80;;;2.25;;
67930;SDS011;63902;52.000;5.954;2023-02-28T05:23:42;3.65;;;1.90;;
67930;SDS011;63902;52.000;5.954;2023-02-28T05:24:43;6.53;;;2.40;;
67930;SDS011;63902;52.000;5.954;2023-02-28T05:25:43;4.93;;;2.90;;
67930;SDS011;63902;52.000;5.954;2023-02-28T05:26:44;3.35;;;1.88;;
67930;SDS011;63902;52.000;5.954;2023-02-28T05:27:44;3.58;;;1.95;;
67930;SDS011;63902;52.000;5.954;2023-02-28T05:28:45;9.20;;;2.33;;
67930;SDS011;63902;52.000;5.954;2023-02-28T05:29:45;5.60;;;1.95;;
67930;SDS011;63902;52.000;5.954;2023-02-28T05:30:46;3.22;;;2.15;;
67930;SDS011;63902;52.000;5.954;2023-02-28T05:31:47;3.78;;;2.00;;
67930;SDS011;63902;52.000;5.954;2023-02-28T05:32:49;3.38;;;2.05;;
67930;SDS011;63902;52.000;5.954;2023-02-28T05:33:51;4.55;;;2.05;;
67930;SDS011;63902;52.000;5.954;2023-02-28T05:34:51;4.15;;;2.20;;
67930;SDS011;63902;52.000;5.954;2023-02-28T05:35:52;4.22;;;2.30;;
67930;SDS011;63902;52.000;5.954;2023-02-28T05:36:52;2.55;;;1.70;;
67930;SDS011;63902;52.000;5.954;2023-02-28T05:37:53;4.75;;;2.15;;
67930;SDS011;63902;52.000;5.954;2023-02-28T05:38:54;3.47;;;1.75;;
67930;SDS011;63902;52.000;5.954;2023-02-28T05:39:55;2.72;;;1.80;;
67930;SDS011;63902;52.000;5.954;2023-02-28T05:40:55;2.55;;;1.70;;
67930;SDS011;63902;52.000;5.954;2023-02-28T05:41:56;3.53;;;1.77;;
67930;SDS011;63902;52.000;5.954;2023-02-28T05:42:56;5.50;;;1.98;;
67930;SDS011;63902;52.000;5.954;2023-02-28T05:43:57;6.18;;;2.10;;
67930;SDS011;63902;52.000;5.954;2023-02-28T05:44:57;3.72;;;1.90;;
67930;SDS011;63902;52.000;5.954;2023-02-28T05:45:58;3.45;;;1.40;;
67930;SDS011;63902;52.000;5.954;2023-02-28T05:46:58;2.90;;;1.80;;
67930;SDS011;63902;52.000;5.954;2023-02-28T05:47:59;1.80;;;1.40;;
67930;SDS011;63902;52.000;5.954;2023-02-28T05:48:59;5.80;;;1.67;;
67930;SDS011;63902;52.000;5.954;2023-02-28T05:50:00;2.80;;;1.65;;
67930;SDS011;63902;52.000;5.954;2023-02-28T05:51:00;2.65;;;1.55;;
67930;SDS011;63902;52.000;5.954;2023-02-28T05:52:01;6.03;;;2.25;;
67930;SDS011;63902;52.000;5.954;2023-02-28T05:53:01;3.30;;;1.80;;
67930;SDS011;63902;52.000;5.954;2023-02-28T05:54:04;4.32;;;1.77;;
67930;SDS011;63902;52.000;5.954;2023-02-28T05:55:05;6.22;;;1.65;;
67930;SDS011;63902;52.000;5.954;2023-02-28T05:56:06;2.22;;;1.50;;
67930;SDS011;63902;52.000;5.954;2023-02-28T05:57:06;2.60;;;2.03;;
67930;SDS011;63902;52.000;5.954;2023-02-28T05:58:07;3.53;;;1.60;;
67930;SDS011;63902;52.000;5.954;2023-02-28T05:59:07;4.72;;;2.00;;
67930;SDS011;63902;52.000;5.954;2023-02-28T06:00:08;3.40;;;1.95;;
67930;SDS011;63902;52.000;5.954;2023-02-28T06:01:20;3.92;;;1.70;;
67930;SDS011;63902;52.000;5.954;2023-02-28T06:02:30;10.52;;;1.92;;
67930;SDS011;63902;52.000;5.954;2023-02-28T06:03:32;3.13;;;1.55;;
67930;SDS011;63902;52.000;5.954;2023-02-28T06:04:33;2.78;;;2.08;;
67930;SDS011;63902;52.000;5.954;2023-02-28T06:05:33;5.50;;;1.90;;
67930;SDS011;63902;52.000;5.954;2023-02-28T06:06:34;3.03;;;1.65;;
67930;SDS011;63902;52.000;5.954;2023-02-28T06:07:34;2.38;;;1.52;;
67930;SDS011;63902;52.000;5.954;2023-02-28T06:08:34;3.55;;;1.55;;
67930;SDS011;63902;52.000;5.954;2023-02-28T06:09:36;2.50;;;1.60;;
67930;SDS011;63902;52.000;5.954;2023-02-28T06:10:37;2.80;;;1.73;;
67930;SDS011;63902;52.000;5.954;2023-02-28T06:11:38;4.22;;;1.77;;
67930;SDS011;63902;52.000;5.954;2023-02-28T06:12:38;4.30;;;2.33;;
67930;SDS011;63902;52.000;5.954;2023-02-28T06:13:38;2.30;;;1.50;;
67930;SDS011;63902;52.000;5.954;2023-02-28T06:14:39;2.83;;;1.70;;
67930;SDS011;63902;52.000;5.954;2023-02-28T06:15:39;3.08;;;1.50;;
67930;SDS011;63902;52.000;5.954;2023-02-28T06:16:40;6.80;;;1.83;;
67930;SDS011;63902;52.000;5.954;2023-02-28T06:17:40;3.30;;;1.92;;
67930;SDS011;63902;52.000;5.954;2023-02-28T06:18:41;3.08;;;1.65;;
67930;SDS011;63902;52.000;5.954;2023-02-28T06:19:41;2.97;;;1.73;;
67930;SDS011;63902;52.000;5.954;2023-02-28T06:20:52;3.67;;;1.67;;
67930;SDS011;63902;52.000;5.954;2023-02-28T06:21:52;1.70;;;1.30;;
67930;SDS011;63902;52.000;5.954;2023-02-28T06:22:54;2.53;;;1.50;;
67930;SDS011;63902;52.000;5.954;2023-02-28T06:23:54;3.55;;;1.98;;
67930;SDS011;63902;52.000;5.954;2023-02-28T06:24:57;2.20;;;1.52;;
67930;SDS011;63902;52.000;5.954;2023-02-28T06:25:57;3.13;;;1.52;;
67930;SDS011;63902;52.000;5.954;2023-02-28T06:26:57;2.83;;;1.60;;
67930;SDS011;63902;52.000;5.954;2023-02-28T06:27:58;3.05;;;1.40;;